Terminal Aerodrome Forecast
Issued by NWS Twin Cities, MN

Home | Current Version | Previous Version | Graphics & Text | Print | Product List | Glossary On
Versions: 1 2 3 4 5 6 7 8 9 10 11 12 13 14 15 16 17 18 19 20 21 22
000
FTUS43 KMPX 250500
TAFMSP
TAF
KMSP 250539Z 2506/2612 22008KT P6SM OVC012
      TEMPO 2508/2512 OVC009
     FM251200 20005KT P6SM BKN015 OVC040
     FM251800 VRB03KT P6SM SCT025 OVC040
     FM252300 05003KT P6SM BKN015 OVC040 PROB30 2600/2604 6SM -SN BR
     FM260400 03005KT 6SM BR OVC015=

USA.gov is the U.S. government's official web portal to all federal, state and local government web resources and services.